createdAt,value
2023-04-27T00:02:42.827Z,3.17
2023-04-27T00:05:32.234Z,2.60
2023-04-27T00:08:20.793Z,2.55
2023-04-27T00:11:09.263Z,1.70
2023-04-27T00:13:59.132Z,2.70
2023-04-27T00:16:47.632Z,4.30
2023-04-27T00:19:36.156Z,2.75
2023-04-27T00:22:24.593Z,2.47
2023-04-27T00:25:13.153Z,3.35
2023-04-27T00:28:01.737Z,3.80
2023-04-27T00:30:54.359Z,3.80
2023-04-27T00:33:42.930Z,3.83
2023-04-27T00:36:31.488Z,3.20
2023-04-27T00:39:20.041Z,2.45
2023-04-27T00:42:11.500Z,2.35
2023-04-27T00:45:00.034Z,2.47
2023-04-27T00:47:50.673Z,2.38
2023-04-27T00:50:39.588Z,2.67
2023-04-27T00:53:28.420Z,2.25
2023-04-27T00:56:16.885Z,1.98
2023-04-27T00:59:05.716Z,1.83
2023-04-27T01:01:55.246Z,2.90
2023-04-27T01:04:45.485Z,2.35
2023-04-27T01:07:34.537Z,4.55
2023-04-27T01:10:23.175Z,3.20
2023-04-27T01:13:11.907Z,3.53
2023-04-27T01:16:00.524Z,4.15
2023-04-27T01:18:49.051Z,3.63
2023-04-27T01:21:38.903Z,3.30
2023-04-27T01:24:28.798Z,3.60
2023-04-27T01:27:17.217Z,3.33
2023-04-27T01:30:06.678Z,2.92
2023-04-27T01:32:55.307Z,2.78
2023-04-27T01:35:43.862Z,3.15
2023-04-27T01:38:33.664Z,2.67
2023-04-27T01:41:23.953Z,4.10
2023-04-27T01:44:13.057Z,4.18
2023-04-27T01:47:01.842Z,5.90
2023-04-27T01:49:51.148Z,3.33
2023-04-27T01:52:39.658Z,3.88
2023-04-27T01:55:28.235Z,4.25
2023-04-27T01:58:18.134Z,6.45
2023-04-27T02:01:06.791Z,5.53
2023-04-27T02:03:55.409Z,3.88
2023-04-27T02:06:44.317Z,4.25
2023-04-27T02:09:32.735Z,4.70
2023-04-27T02:12:21.501Z,6.65
2023-04-27T02:15:11.807Z,3.83
2023-04-27T02:18:00.335Z,3.47
2023-04-27T02:20:48.810Z,5.18
2023-04-27T02:23:37.314Z,3.95
2023-04-27T02:26:29.447Z,4.75
2023-04-27T02:29:18.592Z,4.88
2023-04-27T02:32:09.094Z,4.22
2023-04-27T02:34:57.639Z,4.77
2023-04-27T02:37:46.109Z,3.80
2023-04-27T02:40:34.912Z,4.63
2023-04-27T02:43:23.460Z,4.10
2023-04-27T02:46:12.074Z,4.20
2023-04-27T02:49:01.947Z,4.38
2023-04-27T02:51:50.408Z,7.20
2023-04-27T02:54:39.410Z,4.43
2023-04-27T02:57:28.689Z,4.55
2023-04-27T03:00:18.910Z,4.47
2023-04-27T03:03:07.785Z,4.05
2023-04-27T03:05:57.687Z,3.72
2023-04-27T03:08:46.097Z,4.37
2023-04-27T03:11:36.204Z,5.15
2023-04-27T03:14:25.964Z,3.90
2023-04-27T03:17:14.450Z,3.85
2023-04-27T03:20:04.908Z,5.22
2023-04-27T03:22:54.881Z,3.83
2023-04-27T03:25:43.407Z,3.60
2023-04-27T03:28:31.844Z,5.43
2023-04-27T03:31:20.523Z,5.25
2023-04-27T03:34:09.030Z,4.28
2023-04-27T03:36:57.810Z,3.37
2023-04-27T03:39:47.654Z,4.13
2023-04-27T03:42:36.081Z,4.15
2023-04-27T03:45:24.718Z,4.32
2023-04-27T03:48:13.379Z,4.40
2023-04-27T03:51:02.494Z,4.00
2023-04-27T03:53:51.210Z,5.07
2023-04-27T03:56:41.118Z,4.03
2023-04-27T03:59:30.857Z,4.72
2023-04-27T04:02:19.505Z,3.30
2023-04-27T04:05:08.939Z,4.28
2023-04-27T04:07:58.098Z,3.78
2023-04-27T04:10:46.603Z,4.65
2023-04-27T04:13:36.786Z,4.87
2023-04-27T04:16:25.440Z,5.28
2023-04-27T04:19:14.191Z,4.40
2023-04-27T04:22:03.042Z,4.45
2023-04-27T04:24:51.793Z,5.30
2023-04-27T04:27:40.663Z,5.70
2023-04-27T04:30:30.699Z,4.78
2023-04-27T04:33:19.539Z,5.07
2023-04-27T04:36:08.608Z,4.10
2023-04-27T04:38:57.438Z,6.38
2023-04-27T04:41:45.943Z,4.40
2023-04-27T04:44:34.394Z,3.58
2023-04-27T04:47:24.284Z,3.85
2023-04-27T04:50:13.238Z,4.93
2023-04-27T04:53:01.793Z,4.88
2023-04-27T04:55:50.372Z,3.10
2023-04-27T04:58:39.166Z,4.80
2023-04-27T05:01:27.705Z,2.40
2023-04-27T05:04:18.772Z,4.23
2023-04-27T05:07:07.596Z,3.15
2023-04-27T05:09:56.408Z,2.72
2023-04-27T05:12:45.010Z,2.55
2023-04-27T05:15:33.441Z,2.13
2023-04-27T05:18:21.931Z,2.17
2023-04-27T05:21:17.765Z,2.38
2023-04-27T05:24:06.742Z,2.60
2023-04-27T05:26:55.646Z,3.47
2023-04-27T05:29:44.382Z,2.00
2023-04-27T05:32:33.832Z,1.98
2023-04-27T05:35:22.357Z,2.45
2023-04-27T05:38:15.160Z,1.70
2023-04-27T05:41:03.969Z,2.42
2023-04-27T05:43:53.600Z,2.80
2023-04-27T05:46:42.374Z,1.23
2023-04-27T05:49:31.721Z,2.40
2023-04-27T05:52:20.807Z,1.60
2023-04-27T05:55:11.517Z,3.60
2023-04-27T05:58:07.666Z,2.50
2023-04-27T06:00:57.746Z,2.50
2023-04-27T06:03:46.329Z,1.38
2023-04-27T06:06:35.599Z,1.60
2023-04-27T06:09:23.968Z,2.70
2023-04-27T06:12:13.920Z,4.47
2023-04-27T06:15:08.040Z,1.83
2023-04-27T06:17:56.864Z,4.45
2023-04-27T06:20:45.802Z,2.97
2023-04-27T06:23:34.361Z,1.60
2023-04-27T06:26:23.223Z,3.38
2023-04-27T06:29:13.632Z,2.93
2023-04-27T06:32:05.936Z,1.85
2023-04-27T06:34:54.731Z,2.00
2023-04-27T06:37:43.440Z,2.33
2023-04-27T06:40:32.428Z,4.65
2023-04-27T06:43:21.226Z,2.17
2023-04-27T06:46:11.492Z,4.50
2023-04-27T06:49:00.255Z,5.45
2023-04-27T06:51:49.807Z,2.65
2023-04-27T06:54:38.570Z,4.07
2023-04-27T06:57:27.892Z,5.07
2023-04-27T07:00:17.004Z,3.35
2023-04-27T07:03:07.356Z,5.22
2023-04-27T07:05:56.709Z,7.57
2023-04-27T07:08:45.896Z,3.67
2023-04-27T07:11:34.719Z,2.80
2023-04-27T07:14:24.024Z,3.30
2023-04-27T07:17:12.548Z,4.95
2023-04-27T07:20:03.920Z,4.43
2023-04-27T07:22:52.416Z,3.08
2023-04-27T07:25:41.376Z,4.82
2023-04-27T07:28:30.386Z,2.97
2023-04-27T07:31:19.011Z,2.67
2023-04-27T07:34:07.604Z,3.05
2023-04-27T07:36:57.533Z,4.10
2023-04-27T07:39:46.655Z,2.67
2023-04-27T07:42:35.180Z,2.92
2023-04-27T07:45:31.866Z,4.35
2023-04-27T07:48:20.443Z,4.07
2023-04-27T07:51:09.069Z,3.67
2023-04-27T07:53:59.030Z,3.17
2023-04-27T07:56:47.895Z,5.27
2023-04-27T07:59:36.604Z,3.70
2023-04-27T08:02:25.249Z,3.83
2023-04-27T08:05:14.419Z,3.90
2023-04-27T08:08:03.648Z,4.95
2023-04-27T08:10:53.641Z,5.07
2023-04-27T08:13:42.088Z,4.78
2023-04-27T08:16:31.373Z,4.83
2023-04-27T08:19:20.953Z,6.07
2023-04-27T08:22:09.915Z,7.07
2023-04-27T08:24:58.428Z,4.00
2023-04-27T08:27:48.365Z,8.98
2023-04-27T08:30:37.011Z,4.63
2023-04-27T08:33:25.506Z,3.80
2023-04-27T08:36:13.950Z,4.50
2023-04-27T08:39:02.443Z,3.53
2023-04-27T08:41:50.986Z,4.22
2023-04-27T08:44:41.486Z,4.65
2023-04-27T08:47:41.876Z,6.23
2023-04-27T08:50:31.678Z,6.72
2023-04-27T08:53:21.473Z,3.58
2023-04-27T08:56:10.201Z,7.27
2023-04-27T08:58:59.805Z,6.07
2023-04-27T09:01:51.123Z,4.00
2023-04-27T09:04:40.888Z,4.55
2023-04-27T09:07:29.628Z,4.97
2023-04-27T09:10:18.071Z,5.20
2023-04-27T09:13:06.626Z,6.53
2023-04-27T09:15:55.166Z,6.00
2023-04-27T09:18:45.512Z,4.38
2023-04-27T09:21:34.170Z,7.45
2023-04-27T09:24:22.687Z,7.53
2023-04-27T09:27:11.531Z,6.82
2023-04-27T09:29:59.997Z,5.90
2023-04-27T09:32:53.928Z,8.05
2023-04-27T09:35:46.698Z,5.88
2023-04-27T09:38:35.597Z,7.57
2023-04-27T09:41:24.165Z,6.20
2023-04-27T09:44:12.646Z,7.18
2023-04-27T09:47:02.184Z,6.70
2023-04-27T09:49:52.218Z,5.95
2023-04-27T09:52:42.201Z,7.07
2023-04-27T09:55:34.442Z,6.90
2023-04-27T09:58:44.963Z,3.75
2023-04-27T10:01:40.819Z,5.63
2023-04-27T10:04:54.951Z,5.82
2023-04-27T10:07:47.032Z,5.78
2023-04-27T10:10:44.731Z,5.43
2023-04-27T10:13:33.278Z,6.65
2023-04-27T10:16:22.746Z,7.72
2023-04-27T10:19:12.088Z,4.82
2023-04-27T10:22:03.662Z,4.95
2023-04-27T10:24:53.770Z,4.00
2023-04-27T10:27:42.714Z,7.95
2023-04-27T10:30:34.838Z,7.00
2023-04-27T10:33:24.282Z,6.70
2023-04-27T10:36:16.189Z,6.82
2023-04-27T10:39:05.447Z,5.45
2023-04-27T10:41:56.939Z,2.72
2023-04-27T10:44:55.898Z,7.03
2023-04-27T10:47:46.073Z,5.33
2023-04-27T10:50:35.146Z,6.03
2023-04-27T10:53:23.688Z,5.00
2023-04-27T10:56:12.380Z,5.20
2023-04-27T10:59:05.367Z,4.87
2023-04-27T11:01:53.905Z,5.53
2023-04-27T11:04:43.085Z,5.28
2023-04-27T11:07:32.426Z,5.80
2023-04-27T11:10:21.152Z,4.38
2023-04-27T11:13:11.441Z,4.65
2023-04-27T11:16:01.703Z,5.30
2023-04-27T11:18:50.268Z,5.20
2023-04-27T11:21:39.035Z,6.50
2023-04-27T11:24:27.987Z,3.67
2023-04-27T11:27:17.644Z,4.18
2023-04-27T11:30:08.986Z,4.50
2023-04-27T11:32:59.087Z,4.10
2023-04-27T11:35:47.597Z,2.97
2023-04-27T11:38:36.295Z,3.10
2023-04-27T11:41:24.839Z,4.13
2023-04-27T11:44:13.877Z,4.22
2023-04-27T11:47:02.553Z,4.22
2023-04-27T11:49:53.875Z,3.30
2023-04-27T11:52:42.756Z,3.65
2023-04-27T11:55:31.747Z,4.68
2023-04-27T11:58:20.234Z,3.97
2023-04-27T12:01:10.384Z,4.70
2023-04-27T12:04:01.549Z,2.90
2023-04-27T12:06:52.370Z,4.60
2023-04-27T12:09:41.008Z,3.92
2023-04-27T12:12:29.717Z,5.23
2023-04-27T12:15:18.397Z,4.15
2023-04-27T12:18:07.489Z,6.57
2023-04-27T12:20:56.018Z,4.03
2023-04-27T12:23:46.103Z,3.03
2023-04-27T12:26:36.760Z,3.42
2023-04-27T12:29:25.641Z,3.33
2023-04-27T12:32:14.235Z,8.23
2023-04-27T12:35:02.730Z,4.47
2023-04-27T12:37:52.411Z,3.30
2023-04-27T12:40:42.348Z,5.28
2023-04-27T12:43:30.811Z,3.55
2023-04-27T12:46:19.392Z,5.53
2023-04-27T12:49:08.133Z,5.40
2023-04-27T12:51:57.997Z,2.40
2023-04-27T12:54:46.696Z,3.20
2023-04-27T12:57:36.631Z,2.13
2023-04-27T13:00:26.169Z,4.82
2023-04-27T13:03:14.958Z,4.78
2023-04-27T13:06:03.601Z,3.13
2023-04-27T13:08:52.520Z,2.47
2023-04-27T13:11:41.259Z,3.15
2023-04-27T13:14:33.442Z,2.37
2023-04-27T13:17:22.136Z,5.05
2023-04-27T13:20:11.860Z,5.10
2023-04-27T13:23:01.032Z,5.25
2023-04-27T13:25:49.808Z,4.88
2023-04-27T13:28:38.511Z,4.45
2023-04-27T13:31:28.953Z,3.67
2023-04-27T13:34:18.055Z,1.90
2023-04-27T13:37:07.326Z,2.83
2023-04-27T13:39:56.121Z,2.40
2023-04-27T13:42:44.629Z,2.70
2023-04-27T13:45:33.467Z,3.30
2023-04-27T13:48:23.463Z,1.85
2023-04-27T13:51:12.017Z,2.63
2023-04-27T13:54:01.125Z,3.50
2023-04-27T13:56:49.686Z,2.03
2023-04-27T13:59:38.183Z,3.45
2023-04-27T14:02:26.734Z,2.20
2023-04-27T14:05:16.827Z,6.63
2023-04-27T14:08:05.769Z,4.40
2023-04-27T14:10:54.463Z,2.85
2023-04-27T14:13:42.927Z,4.23
2023-04-27T14:16:31.522Z,1.60
2023-04-27T14:19:20.638Z,158.93
2023-04-27T14:22:11.194Z,369.97
2023-04-27T14:24:59.910Z,86.07
2023-04-27T14:27:48.662Z,7.72
2023-04-27T14:30:37.144Z,2.75
2023-04-27T14:33:25.701Z,2.30
2023-04-27T14:36:15.085Z,1.13
2023-04-27T14:39:06.905Z,4.72
2023-04-27T14:41:55.732Z,2.73
2023-04-27T14:44:44.232Z,2.28
2023-04-27T14:47:32.884Z,2.40
2023-04-27T14:50:21.504Z,3.88
2023-04-27T14:53:10.265Z,2.70
2023-04-27T14:56:00.227Z,1.48
2023-04-27T14:58:48.796Z,1.60
2023-04-27T15:01:37.524Z,4.17
2023-04-27T15:04:26.713Z,4.07
2023-04-27T15:07:15.450Z,4.03
2023-04-27T15:10:04.170Z,1.83
2023-04-27T15:12:54.054Z,3.38
2023-04-27T15:15:45.472Z,3.05
2023-04-27T15:18:35.342Z,4.50
2023-04-27T15:21:23.842Z,3.22
2023-04-27T15:24:12.522Z,1.70
2023-04-27T15:27:01.777Z,1.67
2023-04-27T15:29:51.590Z,2.80
2023-04-27T15:32:40.264Z,2.90
2023-04-27T15:35:28.881Z,1.95
2023-04-27T15:38:17.947Z,3.45
2023-04-27T15:41:06.562Z,1.77
2023-04-27T15:43:55.240Z,1.30
2023-04-27T15:46:45.225Z,1.90
2023-04-27T15:49:37.797Z,2.05
2023-04-27T15:52:34.893Z,3.10
2023-04-27T15:55:23.759Z,2.05
2023-04-27T15:58:12.381Z,2.60
2023-04-27T16:01:01.268Z,3.30
2023-04-27T16:03:51.250Z,3.30
2023-04-27T16:06:40.065Z,2.15
2023-04-27T16:09:29.078Z,2.75
2023-04-27T16:12:17.755Z,2.25
2023-04-27T16:15:09.986Z,2.40
2023-04-27T16:17:59.648Z,2.10
2023-04-27T16:20:49.868Z,1.48
2023-04-27T16:23:38.367Z,2.40
2023-04-27T16:26:28.305Z,3.42
2023-04-27T16:29:16.993Z,1.65
2023-04-27T16:32:05.951Z,1.27
2023-04-27T16:34:54.526Z,1.63
2023-04-27T16:37:44.456Z,1.92
2023-04-27T16:40:32.990Z,2.58
2023-04-27T16:43:21.486Z,2.63
2023-04-27T16:46:13.344Z,2.15
2023-04-27T16:49:02.254Z,2.08
2023-04-27T16:51:51.267Z,1.20
2023-04-27T16:54:41.198Z,1.08
2023-04-27T16:57:29.981Z,3.20
2023-04-27T17:00:18.753Z,1.42
2023-04-27T17:03:07.375Z,0.93
2023-04-27T17:05:55.991Z,1.10
2023-04-27T17:08:44.619Z,1.08
2023-04-27T17:11:34.562Z,0.60
2023-04-27T17:14:24.245Z,0.50
2023-04-27T17:17:13.058Z,1.50
2023-04-27T17:20:02.047Z,0.60
2023-04-27T17:22:50.853Z,1.70
2023-04-27T17:25:39.423Z,1.70
2023-04-27T17:28:29.901Z,0.70
2023-04-27T17:31:18.469Z,0.80
2023-04-27T17:34:07.147Z,0.63
2023-04-27T17:36:55.651Z,0.60
2023-04-27T17:39:44.189Z,1.40
2023-04-27T17:42:32.782Z,0.50
2023-04-27T17:45:22.934Z,1.45
2023-04-27T17:48:11.684Z,0.73
2023-04-27T17:51:00.281Z,0.63
2023-04-27T17:53:48.813Z,0.60
2023-04-27T17:56:37.325Z,1.30
2023-04-27T17:59:25.977Z,1.10
2023-04-27T18:02:16.298Z,0.90
2023-04-27T18:05:05.578Z,0.82
2023-04-27T18:07:54.441Z,0.40
2023-04-27T18:10:42.954Z,1.40
2023-04-27T18:13:32.518Z,1.90
2023-04-27T18:16:21.516Z,3.03
2023-04-27T18:19:11.890Z,7.90
2023-04-27T18:22:00.724Z,34.30
2023-04-27T18:24:49.936Z,76.38
2023-04-27T18:27:38.727Z,99.88
2023-04-27T18:30:27.509Z,82.55
2023-04-27T18:33:17.897Z,67.47
2023-04-27T18:36:08.413Z,64.30
2023-04-27T18:38:58.092Z,71.90
2023-04-27T18:41:46.857Z,90.18
2023-04-27T18:44:36.463Z,103.03
2023-04-27T18:47:25.399Z,114.57
2023-04-27T18:50:14.476Z,136.63
2023-04-27T18:53:05.188Z,166.32
2023-04-27T18:55:54.012Z,139.13
2023-04-27T18:58:42.890Z,136.95
2023-04-27T19:01:31.693Z,137.50
2023-04-27T19:04:20.549Z,123.20
2023-04-27T19:07:09.116Z,111.47
2023-04-27T19:09:58.928Z,93.95
2023-04-27T19:12:47.421Z,68.75
2023-04-27T19:15:35.996Z,77.82
2023-04-27T19:18:24.642Z,111.97
2023-04-27T19:21:13.256Z,129.73
2023-04-27T19:24:01.913Z,83.93
2023-04-27T19:26:52.029Z,30.05
2023-04-27T19:29:51.726Z,16.35
2023-04-27T19:32:40.359Z,16.63
2023-04-27T19:35:28.940Z,16.00
2023-04-27T19:38:17.493Z,13.15
2023-04-27T19:41:07.061Z,10.55
2023-04-27T19:43:56.877Z,12.00
2023-04-27T19:46:45.626Z,7.20
2023-04-27T19:49:34.401Z,4.80
2023-04-27T19:52:22.936Z,5.82
2023-04-27T19:55:11.803Z,6.75
2023-04-27T19:58:00.364Z,17.42
2023-04-27T20:00:50.403Z,40.70
2023-04-27T20:03:40.073Z,58.28
2023-04-27T20:06:29.196Z,58.35
2023-04-27T20:09:17.750Z,64.68
2023-04-27T20:12:07.371Z,65.20
2023-04-27T20:14:56.881Z,59.60
2023-04-27T20:17:47.237Z,52.38
2023-04-27T20:20:37.434Z,63.55
2023-04-27T20:23:26.337Z,79.13
2023-04-27T20:26:15.196Z,116.38
2023-04-27T20:29:03.956Z,108.70
2023-04-27T20:31:52.778Z,127.00
2023-04-27T20:34:43.292Z,100.95
2023-04-27T20:37:32.234Z,83.25
2023-04-27T20:40:21.533Z,84.88
2023-04-27T20:43:10.808Z,97.60
2023-04-27T20:45:59.732Z,76.75
2023-04-27T20:48:48.488Z,32.80
2023-04-27T20:51:38.344Z,17.63
2023-04-27T20:54:26.851Z,10.05
2023-04-27T20:57:15.537Z,5.80
2023-04-27T21:00:04.867Z,4.30
2023-04-27T21:02:53.708Z,2.65
2023-04-27T21:05:42.543Z,7.95
2023-04-27T21:08:33.571Z,31.98
2023-04-27T21:11:22.343Z,70.33
2023-04-27T21:14:11.239Z,159.10
2023-04-27T21:17:00.135Z,93.38
2023-04-27T21:19:48.610Z,64.38
2023-04-27T21:22:37.446Z,17.17
2023-04-27T21:25:27.739Z,11.45
2023-04-27T21:28:16.494Z,13.65
2023-04-27T21:31:05.330Z,6.90
2023-04-27T21:33:54.206Z,3.95
2023-04-27T21:36:43.096Z,4.93
2023-04-27T21:39:31.810Z,2.90
2023-04-27T21:42:22.015Z,2.63
2023-04-27T21:45:11.276Z,2.95
2023-04-27T21:48:00.242Z,2.42
2023-04-27T21:50:49.110Z,1.80
2023-04-27T21:53:38.012Z,2.28
2023-04-27T21:56:27.126Z,2.20
2023-04-27T21:59:17.152Z,2.55
2023-04-27T22:02:08.821Z,2.05
2023-04-27T22:04:57.952Z,4.53
2023-04-27T22:07:47.713Z,2.77
2023-04-27T22:10:36.612Z,2.00
2023-04-27T22:13:25.457Z,2.13
2023-04-27T22:16:15.856Z,2.60
2023-04-27T22:19:04.878Z,1.95
2023-04-27T22:21:53.640Z,2.08
2023-04-27T22:24:42.432Z,2.65
2023-04-27T22:27:41.962Z,2.20
2023-04-27T22:30:33.642Z,2.53
2023-04-27T22:33:23.779Z,2.73
2023-04-27T22:36:12.572Z,2.05
2023-04-27T22:39:01.509Z,3.08
2023-04-27T22:41:50.567Z,3.15
2023-04-27T22:44:39.307Z,3.75
2023-04-27T22:47:28.244Z,3.85
2023-04-27T22:50:18.482Z,5.07
2023-04-27T22:53:07.410Z,3.53
2023-04-27T22:55:56.419Z,2.90
2023-04-27T22:58:45.111Z,4.57
2023-04-27T23:01:34.201Z,2.80
2023-04-27T23:04:23.207Z,3.40
2023-04-27T23:07:13.495Z,2.50
2023-04-27T23:10:03.143Z,2.70
2023-04-27T23:12:54.750Z,2.90
2023-04-27T23:15:43.481Z,4.18
2023-04-27T23:18:32.191Z,2.80
2023-04-27T23:21:20.959Z,3.25
2023-04-27T23:24:11.573Z,2.70
2023-04-27T23:27:00.390Z,3.43
2023-04-27T23:29:49.091Z,4.38
2023-04-27T23:32:38.354Z,3.03
2023-04-27T23:35:29.799Z,3.00
2023-04-27T23:38:18.662Z,3.17
2023-04-27T23:41:08.746Z,2.70
2023-04-27T23:43:57.718Z,3.58
2023-04-27T23:46:46.606Z,2.85
2023-04-27T23:49:35.325Z,3.53
2023-04-27T23:52:24.155Z,3.45
2023-04-27T23:55:12.936Z,3.80
2023-04-27T23:58:03.042Z,2.90
